createdAt,value
2023-05-07T00:01:39.982Z,6.38
2023-05-07T00:04:13.070Z,6.93
2023-05-07T00:06:47.819Z,6.22
2023-05-07T00:09:21.055Z,5.43
2023-05-07T00:11:53.797Z,6.03
2023-05-07T00:14:26.701Z,5.03
2023-05-07T00:16:59.651Z,6.75
2023-05-07T00:19:32.837Z,6.13
2023-05-07T00:22:06.995Z,5.22
2023-05-07T00:24:40.029Z,5.38
2023-05-07T00:27:12.879Z,5.50
2023-05-07T00:29:45.663Z,5.25
2023-05-07T00:32:18.592Z,4.95
2023-05-07T00:37:26.250Z,4.95
2023-05-07T00:39:59.305Z,4.93
2023-05-07T00:42:34.333Z,4.85
2023-05-07T00:45:10.100Z,6.95
2023-05-07T00:47:43.604Z,6.13
2023-05-07T00:50:16.490Z,6.00
2023-05-07T00:52:51.466Z,6.00
2023-05-07T00:55:25.552Z,5.90
2023-05-07T00:57:58.513Z,5.53
2023-05-07T01:03:05.223Z,4.45
2023-05-07T01:05:38.658Z,4.80
2023-05-07T01:08:14.342Z,4.63
2023-05-07T01:10:48.095Z,4.15
2023-05-07T01:13:22.094Z,4.43
2023-05-07T01:15:55.113Z,4.68
2023-05-07T01:21:03.782Z,4.03
2023-05-07T01:23:38.581Z,4.13
2023-05-07T01:26:11.517Z,3.90
2023-05-07T01:28:44.608Z,3.90
2023-05-07T01:33:53.237Z,4.40
2023-05-07T01:36:28.300Z,4.03
2023-05-07T01:39:04.139Z,3.70
2023-05-07T01:41:37.641Z,4.22
2023-05-07T01:44:14.556Z,4.18
2023-05-07T01:46:48.479Z,3.92
2023-05-07T01:49:21.849Z,4.15
2023-05-07T01:51:54.751Z,4.70
2023-05-07T01:57:04.093Z,4.10
2023-05-07T01:59:37.213Z,4.40
2023-05-07T02:02:10.068Z,3.85
2023-05-07T02:04:46.222Z,4.38
2023-05-07T02:07:20.005Z,4.53
2023-05-07T02:09:54.776Z,4.40
2023-05-07T02:12:28.575Z,4.38
2023-05-07T02:17:34.280Z,4.40
2023-05-07T02:22:48.474Z,4.57
2023-05-07T02:25:24.439Z,4.43
2023-05-07T02:27:57.267Z,4.80
2023-05-07T02:30:40.081Z,4.43
2023-05-07T02:33:13.641Z,4.93
2023-05-07T02:35:47.160Z,4.43
2023-05-07T02:38:21.995Z,4.68
2023-05-07T02:40:56.193Z,5.53
2023-05-07T02:43:29.170Z,4.68
2023-05-07T02:46:03.906Z,4.18
2023-05-07T02:48:37.376Z,4.32
2023-05-07T02:51:10.303Z,4.75
2023-05-07T02:53:45.252Z,4.25
2023-05-07T02:58:52.214Z,4.60
2023-05-07T03:01:27.481Z,4.07
2023-05-07T03:04:12.526Z,3.90
2023-05-07T03:06:45.520Z,4.90
2023-05-07T03:11:54.896Z,4.68
2023-05-07T03:14:28.010Z,4.30
2023-05-07T03:17:01.057Z,4.22
2023-05-07T03:19:45.467Z,4.70
2023-05-07T03:22:18.459Z,4.07
2023-05-07T03:24:51.399Z,3.95
2023-05-07T03:30:01.070Z,4.35
2023-05-07T03:32:34.569Z,3.72
2023-05-07T03:35:08.138Z,3.70
2023-05-07T03:37:41.396Z,3.42
2023-05-07T03:40:15.258Z,4.18
2023-05-07T03:42:54.560Z,3.63
2023-05-07T03:45:30.467Z,3.72
2023-05-07T03:48:15.427Z,2.90
2023-05-07T03:50:49.460Z,3.42
2023-05-07T03:53:24.020Z,3.67
2023-05-07T03:55:57.397Z,3.28
2023-05-07T03:58:31.949Z,3.60
2023-05-07T04:01:09.638Z,3.58
2023-05-07T04:03:42.673Z,3.30
2023-05-07T04:06:17.571Z,3.40
2023-05-07T04:08:53.130Z,3.13
2023-05-07T04:11:26.131Z,2.75
2023-05-07T04:14:02.300Z,3.00
2023-05-07T04:16:44.196Z,3.08
2023-05-07T04:19:21.761Z,2.88
2023-05-07T04:21:58.476Z,2.85
2023-05-07T04:24:35.476Z,2.70
2023-05-07T04:27:09.539Z,2.83
2023-05-07T04:29:48.022Z,3.00
2023-05-07T04:32:22.134Z,2.45
2023-05-07T04:34:56.307Z,2.75
2023-05-07T04:37:29.230Z,2.45
2023-05-07T04:42:37.439Z,2.40
2023-05-07T04:45:13.411Z,2.40
2023-05-07T04:47:48.778Z,2.47
2023-05-07T04:50:24.726Z,2.80
2023-05-07T04:52:59.462Z,2.70
2023-05-07T04:58:05.934Z,2.30
2023-05-07T05:00:44.408Z,2.20
2023-05-07T05:03:17.366Z,2.30
2023-05-07T05:05:51.402Z,1.98
2023-05-07T05:08:24.377Z,2.40
2023-05-07T05:13:31.284Z,2.70
2023-05-07T05:16:06.974Z,2.58
2023-05-07T05:18:40.017Z,2.33
2023-05-07T05:21:14.487Z,2.33
2023-05-07T05:23:48.669Z,2.50
2023-05-07T05:26:25.400Z,2.47
2023-05-07T05:28:58.220Z,2.00
2023-05-07T05:31:34.695Z,2.38
2023-05-07T05:34:07.599Z,2.05
2023-05-07T05:36:41.044Z,2.10
2023-05-07T05:39:14.201Z,2.88
2023-05-07T05:41:47.072Z,3.58
2023-05-07T05:44:20.951Z,3.42
2023-05-07T05:46:56.253Z,3.70
2023-05-07T05:49:29.287Z,3.38
2023-05-07T05:52:02.444Z,3.47
2023-05-07T05:54:35.549Z,3.72
2023-05-07T05:57:09.162Z,3.75
2023-05-07T05:59:42.141Z,3.53
2023-05-07T06:04:49.326Z,3.30
2023-05-07T06:07:25.330Z,4.28
2023-05-07T06:09:58.464Z,4.75
2023-05-07T06:12:31.496Z,3.63
2023-05-07T06:15:04.810Z,3.75
2023-05-07T06:17:39.196Z,4.13
2023-05-07T06:20:15.824Z,4.55
2023-05-07T06:22:48.742Z,5.10
2023-05-07T06:25:22.740Z,5.15
2023-05-07T06:27:55.563Z,4.10
2023-05-07T06:30:29.890Z,4.60
2023-05-07T06:33:04.618Z,4.20
2023-05-07T06:35:37.654Z,4.13
2023-05-07T06:38:10.622Z,4.20
2023-05-07T06:43:16.312Z,3.95
2023-05-07T06:45:56.589Z,4.15
2023-05-07T06:48:31.324Z,5.50
2023-05-07T06:51:09.020Z,7.18
2023-05-07T06:56:18.439Z,5.38
2023-05-07T06:58:51.362Z,6.40
2023-05-07T07:01:27.908Z,6.40
2023-05-07T07:06:36.497Z,5.97
2023-05-07T07:09:13.903Z,7.43
2023-05-07T07:11:47.643Z,7.03
2023-05-07T07:17:00.048Z,5.88
2023-05-07T07:22:09.545Z,5.90
2023-05-07T07:24:43.362Z,6.78
2023-05-07T07:27:23.059Z,6.82
2023-05-07T07:30:22.703Z,7.23
2023-05-07T07:33:05.618Z,5.75
2023-05-07T07:35:50.553Z,6.28
2023-05-07T07:38:26.586Z,5.80
2023-05-07T07:40:59.617Z,4.85
2023-05-07T07:46:06.105Z,5.00
2023-05-07T07:48:39.751Z,5.82
2023-05-07T07:53:46.871Z,5.47
2023-05-07T07:56:19.819Z,5.70
2023-05-07T07:58:53.133Z,5.38
2023-05-07T08:04:00.155Z,9.07
2023-05-07T08:06:36.698Z,10.10
2023-05-07T08:09:10.317Z,9.07
2023-05-07T08:11:45.061Z,11.15
2023-05-07T08:16:53.572Z,11.55
2023-05-07T08:19:26.601Z,11.02
2023-05-07T08:24:33.959Z,9.52
2023-05-07T08:29:39.715Z,11.43
2023-05-07T08:32:12.682Z,11.23
2023-05-07T08:34:45.511Z,9.60
2023-05-07T08:37:22.594Z,9.68
2023-05-07T08:39:55.802Z,9.48
2023-05-07T08:42:37.264Z,9.95
2023-05-07T08:45:12.014Z,8.18
2023-05-07T08:47:53.826Z,8.77
2023-05-07T08:50:28.616Z,9.05
2023-05-07T08:53:04.934Z,7.97
2023-05-07T08:55:42.780Z,7.28
2023-05-07T08:58:15.928Z,7.57
2023-05-07T09:00:49.270Z,7.93
2023-05-07T09:03:23.171Z,7.15
2023-05-07T09:05:58.627Z,8.43
2023-05-07T09:08:35.666Z,7.50
2023-05-07T09:11:10.944Z,7.00
2023-05-07T09:13:44.783Z,6.47
2023-05-07T09:16:18.471Z,7.75
2023-05-07T09:18:54.839Z,7.75
2023-05-07T09:21:28.672Z,7.30
2023-05-07T09:24:06.190Z,6.93
2023-05-07T09:26:43.498Z,6.70
2023-05-07T09:29:18.724Z,6.25
2023-05-07T09:31:52.195Z,7.43
2023-05-07T09:34:25.369Z,6.78
2023-05-07T09:36:58.713Z,7.03
2023-05-07T09:39:42.653Z,6.10
2023-05-07T09:42:16.795Z,5.93
2023-05-07T09:44:50.038Z,5.05
2023-05-07T09:47:27.224Z,5.68
2023-05-07T09:50:04.283Z,5.75
2023-05-07T09:52:37.992Z,5.70
2023-05-07T09:55:14.936Z,4.50
2023-05-07T09:57:52.073Z,4.18
2023-05-07T10:00:26.387Z,3.50
2023-05-07T10:03:07.891Z,4.07
2023-05-07T10:05:49.224Z,3.28
2023-05-07T10:08:22.675Z,3.53
2023-05-07T10:11:01.419Z,3.75
2023-05-07T10:13:38.171Z,3.55
2023-05-07T10:16:13.850Z,4.05
2023-05-07T10:18:52.153Z,4.30
2023-05-07T10:21:30.057Z,3.60
2023-05-07T10:24:09.520Z,3.58
2023-05-07T10:26:46.174Z,4.03
2023-05-07T10:29:32.355Z,3.58
2023-05-07T10:32:28.115Z,3.83
2023-05-07T10:35:05.261Z,3.90
2023-05-07T10:37:39.145Z,3.35
2023-05-07T10:40:13.974Z,4.25
2023-05-07T10:42:57.907Z,4.03
2023-05-07T10:45:31.551Z,4.00
2023-05-07T10:50:50.878Z,4.60
2023-05-07T10:53:28.443Z,3.47
2023-05-07T10:56:29.828Z,4.53
2023-05-07T10:59:37.054Z,3.92
2023-05-07T11:02:19.870Z,3.75
2023-05-07T11:05:21.944Z,3.90
2023-05-07T11:08:03.000Z,4.03
2023-05-07T11:10:53.754Z,4.38
2023-05-07T11:13:46.223Z,3.00
2023-05-07T11:16:37.875Z,4.53
2023-05-07T11:19:52.237Z,4.20
2023-05-07T11:22:42.060Z,4.72
2023-05-07T11:25:32.019Z,4.47
2023-05-07T11:28:15.925Z,5.15
2023-05-07T11:31:01.895Z,4.53
2023-05-07T11:33:36.703Z,4.80
2023-05-07T11:36:12.112Z,3.80
2023-05-07T11:38:51.207Z,3.08
2023-05-07T11:41:24.164Z,3.22
2023-05-07T11:43:59.343Z,3.90
2023-05-07T11:46:32.362Z,3.58
2023-05-07T11:49:06.552Z,4.35
2023-05-07T11:51:41.682Z,4.43
2023-05-07T11:54:17.865Z,3.85
2023-05-07T11:56:51.291Z,3.90
2023-05-07T11:59:24.017Z,5.43
2023-05-07T12:02:00.156Z,4.63
2023-05-07T12:04:34.559Z,4.97
2023-05-07T12:07:07.438Z,4.57
2023-05-07T12:12:13.830Z,5.00
2023-05-07T12:14:48.272Z,4.47
2023-05-07T12:17:21.387Z,4.53
2023-05-07T12:19:56.105Z,4.38
2023-05-07T12:22:29.040Z,4.45
2023-05-07T12:25:01.901Z,3.75
2023-05-07T12:27:38.887Z,4.22
2023-05-07T12:30:13.494Z,4.53
2023-05-07T12:32:47.753Z,4.80
2023-05-07T12:35:29.813Z,6.05
2023-05-07T12:38:09.741Z,4.28
2023-05-07T12:40:47.315Z,5.25
2023-05-07T12:43:20.914Z,4.85
2023-05-07T12:46:14.664Z,5.13
2023-05-07T12:48:53.382Z,5.97
2023-05-07T12:51:34.067Z,5.63
2023-05-07T12:54:08.673Z,6.05
2023-05-07T12:56:45.092Z,5.60
2023-05-07T12:59:18.206Z,5.53
2023-05-07T13:02:01.832Z,5.65
2023-05-07T13:04:34.935Z,6.82
2023-05-07T13:07:11.471Z,5.97
2023-05-07T13:09:45.489Z,6.05
2023-05-07T13:12:18.509Z,5.97
2023-05-07T13:14:51.616Z,5.00
2023-05-07T13:17:27.465Z,4.43
2023-05-07T13:20:02.796Z,4.80
2023-05-07T13:22:40.792Z,6.00
2023-05-07T13:28:23.147Z,5.10
2023-05-07T13:30:56.522Z,5.38
2023-05-07T13:33:29.626Z,4.70
2023-05-07T13:36:03.306Z,5.18
2023-05-07T13:38:37.649Z,6.65
2023-05-07T13:41:10.586Z,7.20
2023-05-07T13:43:43.494Z,8.30
2023-05-07T13:48:48.943Z,6.88
2023-05-07T13:53:59.518Z,6.70
2023-05-07T13:56:33.466Z,6.75
2023-05-07T13:59:06.522Z,7.63
2023-05-07T14:01:39.397Z,7.38
2023-05-07T14:04:12.535Z,6.07
2023-05-07T14:06:45.426Z,6.50
2023-05-07T14:11:53.505Z,5.38
2023-05-07T14:14:26.421Z,6.53
2023-05-07T14:16:59.446Z,5.97
2023-05-07T14:19:32.766Z,5.93
2023-05-07T14:22:05.698Z,5.43
2023-05-07T14:24:42.712Z,6.72
2023-05-07T14:27:15.956Z,5.38
2023-05-07T14:29:54.224Z,5.82
2023-05-07T14:32:27.054Z,5.50
2023-05-07T14:35:00.181Z,5.88
2023-05-07T14:37:33.437Z,4.22
2023-05-07T14:40:12.086Z,5.22
2023-05-07T14:42:45.989Z,3.38
2023-05-07T14:47:51.797Z,4.18
2023-05-07T14:52:58.482Z,3.70
2023-05-07T14:55:36.296Z,4.68
2023-05-07T14:58:12.509Z,4.38
2023-05-07T15:00:46.988Z,4.65
2023-05-07T15:03:20.257Z,4.63
2023-05-07T15:05:58.777Z,4.28
2023-05-07T15:08:32.126Z,4.50
2023-05-07T15:11:06.691Z,3.85
2023-05-07T15:13:41.737Z,5.47
2023-05-07T15:16:15.437Z,4.80
2023-05-07T15:19:05.361Z,3.70
2023-05-07T15:21:40.466Z,4.47
2023-05-07T15:24:13.604Z,4.00
2023-05-07T15:26:48.938Z,4.97
2023-05-07T15:29:24.622Z,3.60
2023-05-07T15:32:00.064Z,3.22
2023-05-07T15:34:40.185Z,3.17
2023-05-07T15:37:22.473Z,4.18
2023-05-07T15:39:58.099Z,3.90
2023-05-07T15:42:40.536Z,5.15
2023-05-07T15:45:14.165Z,3.45
2023-05-07T15:47:59.372Z,3.67
2023-05-07T15:50:33.139Z,3.97
2023-05-07T15:53:28.233Z,3.53
2023-05-07T15:56:18.315Z,4.38
2023-05-07T15:59:06.478Z,4.97
2023-05-07T16:01:41.117Z,4.40
2023-05-07T16:04:14.135Z,4.13
2023-05-07T16:07:22.782Z,3.50
2023-05-07T16:09:55.690Z,3.33
2023-05-07T16:12:28.662Z,4.03
2023-05-07T16:15:09.307Z,3.00
2023-05-07T16:17:42.580Z,3.28
2023-05-07T16:20:20.058Z,3.78
2023-05-07T16:22:53.914Z,3.40
2023-05-07T16:25:27.013Z,4.22
2023-05-07T16:27:59.981Z,3.83
2023-05-07T16:30:34.494Z,3.75
2023-05-07T16:33:20.925Z,3.90
2023-05-07T16:35:57.091Z,4.97
2023-05-07T16:38:33.103Z,3.90
2023-05-07T16:41:07.147Z,4.50
2023-05-07T16:43:40.244Z,4.85
2023-05-07T16:46:15.959Z,3.95
2023-05-07T16:48:52.428Z,4.25
2023-05-07T16:51:30.490Z,4.75
2023-05-07T16:54:03.748Z,3.90
2023-05-07T16:56:36.615Z,4.03
2023-05-07T16:59:09.940Z,4.15
2023-05-07T17:01:44.411Z,3.60
2023-05-07T17:04:17.385Z,3.35
2023-05-07T17:06:50.217Z,3.25
2023-05-07T17:09:23.166Z,4.80
2023-05-07T17:11:56.117Z,3.80
2023-05-07T17:14:29.171Z,4.47
2023-05-07T17:17:03.417Z,5.50
2023-05-07T17:19:40.039Z,3.90
2023-05-07T17:22:13.310Z,4.18
2023-05-07T17:24:46.467Z,6.00
2023-05-07T17:27:23.515Z,3.90
2023-05-07T17:29:56.479Z,5.97
2023-05-07T17:32:32.867Z,4.82
2023-05-07T17:35:06.904Z,3.65
2023-05-07T17:37:40.175Z,4.35
2023-05-07T17:40:14.022Z,4.78
2023-05-07T17:42:50.360Z,7.80
2023-05-07T17:45:25.093Z,5.40
2023-05-07T17:47:59.421Z,4.40
2023-05-07T17:50:32.598Z,3.45
2023-05-07T17:53:06.106Z,4.18
2023-05-07T17:55:45.481Z,4.63
2023-05-07T18:01:26.888Z,5.28
2023-05-07T18:19:05.250Z,3.75
2023-05-07T18:21:50.159Z,4.57
2023-05-07T18:24:27.545Z,5.68
2023-05-07T18:27:03.464Z,4.43
2023-05-07T18:29:37.840Z,7.22
2023-05-07T18:32:10.863Z,8.82
2023-05-07T18:34:45.460Z,6.78
2023-05-07T18:37:18.515Z,5.50
2023-05-07T18:40:03.356Z,5.72
2023-05-07T18:45:48.262Z,7.78
2023-05-07T18:48:26.523Z,7.35
2023-05-07T18:51:16.543Z,7.22
2023-05-07T18:56:50.448Z,5.85
2023-05-07T18:59:23.342Z,6.07
2023-05-07T19:01:58.916Z,7.65
2023-05-07T19:04:32.111Z,7.68
2023-05-07T19:07:06.656Z,7.35
2023-05-07T19:09:43.893Z,6.60
2023-05-07T19:12:21.552Z,6.07
2023-05-07T19:14:56.475Z,9.85
2023-05-07T19:17:29.340Z,7.85
2023-05-07T19:22:36.549Z,5.57
2023-05-07T19:25:13.595Z,4.57
2023-05-07T19:27:47.294Z,5.53
2023-05-07T19:30:20.424Z,4.28
2023-05-07T19:32:58.390Z,4.90
2023-05-07T19:35:43.915Z,7.00
2023-05-07T19:38:23.864Z,6.68
2023-05-07T19:41:03.157Z,8.35
2023-05-07T19:43:59.627Z,5.50
2023-05-07T19:46:33.205Z,4.63
2023-05-07T19:49:06.863Z,5.15
2023-05-07T19:51:40.479Z,4.95
2023-05-07T19:54:15.471Z,5.55
2023-05-07T19:56:48.742Z,5.70
2023-05-07T19:59:26.103Z,5.57
2023-05-07T20:02:00.183Z,7.57
2023-05-07T20:04:37.917Z,5.22
2023-05-07T20:07:14.092Z,5.70
2023-05-07T20:09:49.202Z,6.10
2023-05-07T20:12:24.581Z,6.45
2023-05-07T20:14:57.947Z,7.88
2023-05-07T20:17:30.934Z,4.57
2023-05-07T20:20:05.726Z,6.78
2023-05-07T20:22:39.028Z,7.50
2023-05-07T20:25:18.408Z,9.02
2023-05-07T20:27:51.495Z,8.00
2023-05-07T20:30:24.908Z,9.77
2023-05-07T20:32:58.066Z,10.45
2023-05-07T20:35:31.134Z,10.02
2023-05-07T20:38:04.667Z,9.52
2023-05-07T20:40:42.016Z,8.07
2023-05-07T20:43:17.173Z,5.85
2023-05-07T20:48:23.370Z,8.48
2023-05-07T20:56:05.728Z,8.52
2023-05-07T20:58:38.597Z,8.55
2023-05-07T21:03:44.350Z,6.85
2023-05-07T21:06:19.348Z,6.38
2023-05-07T21:08:52.369Z,7.07
2023-05-07T21:14:04.158Z,5.22
2023-05-07T21:16:37.230Z,6.78
2023-05-07T21:19:10.315Z,5.18
2023-05-07T21:21:43.746Z,5.00
2023-05-07T21:24:16.649Z,5.47
2023-05-07T21:29:25.475Z,5.25
2023-05-07T21:31:58.758Z,5.53
2023-05-07T21:34:31.564Z,6.00
2023-05-07T21:39:38.429Z,7.05
2023-05-07T21:42:14.057Z,6.03
2023-05-07T21:44:46.882Z,6.32
2023-05-07T21:50:01.566Z,11.27
2023-05-07T21:52:37.578Z,7.38
2023-05-07T21:55:15.240Z,7.22
2023-05-07T21:58:05.932Z,6.97
2023-05-07T22:00:39.225Z,5.68
2023-05-07T22:03:12.089Z,5.45
2023-05-07T22:05:45.121Z,5.43
2023-05-07T22:08:24.399Z,5.50
2023-05-07T22:11:06.286Z,5.47
2023-05-07T22:13:43.519Z,6.05
2023-05-07T22:16:17.097Z,7.22
2023-05-07T22:18:50.733Z,6.10
2023-05-07T22:21:23.669Z,5.93
2023-05-07T22:26:30.140Z,6.53
2023-05-07T22:29:04.492Z,6.63
2023-05-07T22:31:38.378Z,7.05
2023-05-07T22:34:12.384Z,9.82
2023-05-07T22:36:48.358Z,8.55
2023-05-07T22:39:21.192Z,9.50
2023-05-07T22:44:28.655Z,8.17
2023-05-07T22:47:05.825Z,8.52
2023-05-07T22:53:02.218Z,8.57
2023-05-07T22:55:35.288Z,10.20
2023-05-07T22:58:15.900Z,9.48
2023-05-07T23:00:51.097Z,10.23
2023-05-07T23:03:24.512Z,9.07
2023-05-07T23:08:35.569Z,7.70
2023-05-07T23:11:24.560Z,9.98
2023-05-07T23:14:23.857Z,8.30
2023-05-07T23:17:02.918Z,8.38
2023-05-07T23:19:35.773Z,6.78
2023-05-07T23:24:42.642Z,9.88
2023-05-07T23:27:16.157Z,8.23
2023-05-07T23:29:48.955Z,8.90
2023-05-07T23:32:24.426Z,9.45
2023-05-07T23:34:57.579Z,10.23
2023-05-07T23:37:30.479Z,6.65
2023-05-07T23:40:05.148Z,7.10
2023-05-07T23:42:38.157Z,7.28
2023-05-07T23:45:11.481Z,8.13
2023-05-07T23:47:46.276Z,7.13
2023-05-07T23:50:19.087Z,6.57
2023-05-07T23:52:51.856Z,7.10
2023-05-07T23:55:24.690Z,7.60
